sensor_id;sensor_type;location;lat;lon;timestamp;P1;durP1;ratioP1;P2;durP2;ratioP2
52668;SDS011;76842;52.786;6.892;2024-03-22T00:02:13;47.25;;;28.48;;
52668;SDS011;76842;52.786;6.892;2024-03-22T00:05:34;42.70;;;28.45;;
52668;SDS011;76842;52.786;6.892;2024-03-22T00:08:54;41.38;;;29.27;;
52668;SDS011;76842;52.786;6.892;2024-03-22T00:12:15;42.65;;;29.60;;
52668;SDS011;76842;52.786;6.892;2024-03-22T00:15:36;43.70;;;29.75;;
52668;SDS011;76842;52.786;6.892;2024-03-22T00:18:57;44.88;;;29.75;;
52668;SDS011;76842;52.786;6.892;2024-03-22T00:22:17;43.35;;;30.17;;
52668;SDS011;76842;52.786;6.892;2024-03-22T00:25:38;41.15;;;29.95;;
52668;SDS011;76842;52.786;6.892;2024-03-22T00:28:59;46.53;;;31.52;;
52668;SDS011;76842;52.786;6.892;2024-03-22T00:32:19;46.78;;;30.38;;
52668;SDS011;76842;52.786;6.892;2024-03-22T00:35:40;45.58;;;29.65;;
52668;SDS011;76842;52.786;6.892;2024-03-22T00:39:01;44.67;;;29.63;;
52668;SDS011;76842;52.786;6.892;2024-03-22T00:42:21;46.53;;;28.90;;
52668;SDS011;76842;52.786;6.892;2024-03-22T00:45:42;49.45;;;32.22;;
52668;SDS011;76842;52.786;6.892;2024-03-22T00:49:03;45.75;;;32.67;;
52668;SDS011;76842;52.786;6.892;2024-03-22T00:52:23;47.97;;;31.67;;
52668;SDS011;76842;52.786;6.892;2024-03-22T00:55:45;43.13;;;30.63;;
52668;SDS011;76842;52.786;6.892;2024-03-22T00:59:10;52.88;;;33.28;;
52668;SDS011;76842;52.786;6.892;2024-03-22T01:02:31;49.17;;;32.03;;
52668;SDS011;76842;52.786;6.892;2024-03-22T01:05:52;48.97;;;32.00;;
52668;SDS011;76842;52.786;6.892;2024-03-22T01:09:12;52.15;;;33.22;;
52668;SDS011;76842;52.786;6.892;2024-03-22T01:12:33;52.70;;;34.40;;
52668;SDS011;76842;52.786;6.892;2024-03-22T01:15:54;56.28;;;33.30;;
52668;SDS011;76842;52.786;6.892;2024-03-22T01:19:15;54.83;;;36.13;;
52668;SDS011;76842;52.786;6.892;2024-03-22T01:22:35;58.35;;;36.92;;
52668;SDS011;76842;52.786;6.892;2024-03-22T01:25:57;57.15;;;35.35;;
52668;SDS011;76842;52.786;6.892;2024-03-22T01:29:18;56.05;;;36.67;;
52668;SDS011;76842;52.786;6.892;2024-03-22T01:32:38;54.35;;;36.05;;
52668;SDS011;76842;52.786;6.892;2024-03-22T01:35:59;59.75;;;37.13;;
52668;SDS011;76842;52.786;6.892;2024-03-22T01:39:20;53.20;;;35.13;;
52668;SDS011;76842;52.786;6.892;2024-03-22T01:42:41;57.00;;;37.45;;
52668;SDS011;76842;52.786;6.892;2024-03-22T01:46:02;52.60;;;35.03;;
52668;SDS011;76842;52.786;6.892;2024-03-22T01:49:24;58.63;;;37.55;;
52668;SDS011;76842;52.786;6.892;2024-03-22T01:52:45;60.22;;;36.70;;
52668;SDS011;76842;52.786;6.892;2024-03-22T01:56:06;62.45;;;36.63;;
52668;SDS011;76842;52.786;6.892;2024-03-22T01:59:28;58.03;;;36.63;;
52668;SDS011;76842;52.786;6.892;2024-03-22T02:02:50;56.83;;;35.57;;
52668;SDS011;76842;52.786;6.892;2024-03-22T02:06:10;55.30;;;36.47;;
52668;SDS011;76842;52.786;6.892;2024-03-22T02:09:31;60.17;;;37.95;;
52668;SDS011;76842;52.786;6.892;2024-03-22T02:12:51;53.72;;;36.55;;
52668;SDS011;76842;52.786;6.892;2024-03-22T02:16:12;55.50;;;35.85;;
52668;SDS011;76842;52.786;6.892;2024-03-22T02:19:33;55.15;;;37.42;;
52668;SDS011;76842;52.786;6.892;2024-03-22T02:22:53;58.35;;;38.17;;
52668;SDS011;76842;52.786;6.892;2024-03-22T02:26:14;63.33;;;37.80;;
52668;SDS011;76842;52.786;6.892;2024-03-22T02:29:35;56.88;;;37.10;;
52668;SDS011;76842;52.786;6.892;2024-03-22T02:32:55;59.50;;;35.90;;
52668;SDS011;76842;52.786;6.892;2024-03-22T02:36:16;63.22;;;38.42;;
52668;SDS011;76842;52.786;6.892;2024-03-22T02:39:37;61.08;;;38.72;;
52668;SDS011;76842;52.786;6.892;2024-03-22T02:42:58;59.35;;;36.03;;
52668;SDS011;76842;52.786;6.892;2024-03-22T02:46:18;60.38;;;36.75;;
52668;SDS011;76842;52.786;6.892;2024-03-22T02:49:40;60.30;;;39.35;;
52668;SDS011;76842;52.786;6.892;2024-03-22T02:53:00;61.17;;;38.90;;
52668;SDS011;76842;52.786;6.892;2024-03-22T02:56:21;62.97;;;39.58;;
52668;SDS011;76842;52.786;6.892;2024-03-22T02:59:42;63.63;;;39.13;;
52668;SDS011;76842;52.786;6.892;2024-03-22T03:03:03;61.13;;;37.78;;
52668;SDS011;76842;52.786;6.892;2024-03-22T03:06:24;70.70;;;38.90;;
52668;SDS011;76842;52.786;6.892;2024-03-22T03:09:45;62.60;;;36.97;;
52668;SDS011;76842;52.786;6.892;2024-03-22T03:13:06;61.28;;;38.05;;
52668;SDS011;76842;52.786;6.892;2024-03-22T03:16:26;61.30;;;37.22;;
52668;SDS011;76842;52.786;6.892;2024-03-22T03:19:47;63.58;;;37.67;;
52668;SDS011;76842;52.786;6.892;2024-03-22T03:23:08;63.90;;;38.78;;
52668;SDS011;76842;52.786;6.892;2024-03-22T03:26:28;64.47;;;38.22;;
52668;SDS011;76842;52.786;6.892;2024-03-22T03:29:49;59.95;;;38.05;;
52668;SDS011;76842;52.786;6.892;2024-03-22T03:33:10;54.35;;;37.65;;
52668;SDS011;76842;52.786;6.892;2024-03-22T03:36:30;58.50;;;38.13;;
52668;SDS011;76842;52.786;6.892;2024-03-22T03:39:51;58.50;;;37.00;;
52668;SDS011;76842;52.786;6.892;2024-03-22T03:43:12;58.35;;;37.17;;
52668;SDS011;76842;52.786;6.892;2024-03-22T03:46:32;57.05;;;36.50;;
52668;SDS011;76842;52.786;6.892;2024-03-22T03:49:53;62.03;;;37.75;;
52668;SDS011;76842;52.786;6.892;2024-03-22T03:53:14;58.15;;;35.75;;
52668;SDS011;76842;52.786;6.892;2024-03-22T03:56:34;57.83;;;38.83;;
52668;SDS011;76842;52.786;6.892;2024-03-22T03:59:55;62.45;;;40.20;;
52668;SDS011;76842;52.786;6.892;2024-03-22T04:03:16;64.45;;;39.22;;
52668;SDS011;76842;52.786;6.892;2024-03-22T04:06:36;58.20;;;39.90;;
52668;SDS011;76842;52.786;6.892;2024-03-22T04:09:57;58.05;;;38.38;;
52668;SDS011;76842;52.786;6.892;2024-03-22T04:13:20;65.15;;;40.30;;
52668;SDS011;76842;52.786;6.892;2024-03-22T04:16:40;67.80;;;41.20;;
52668;SDS011;76842;52.786;6.892;2024-03-22T04:20:02;62.72;;;38.25;;
52668;SDS011;76842;52.786;6.892;2024-03-22T04:23:24;63.15;;;39.35;;
52668;SDS011;76842;52.786;6.892;2024-03-22T04:26:45;59.85;;;37.15;;
52668;SDS011;76842;52.786;6.892;2024-03-22T04:30:06;65.55;;;40.30;;
52668;SDS011;76842;52.786;6.892;2024-03-22T04:33:27;61.72;;;36.42;;
52668;SDS011;76842;52.786;6.892;2024-03-22T04:36:48;59.50;;;38.75;;
52668;SDS011;76842;52.786;6.892;2024-03-22T04:40:09;56.63;;;39.55;;
52668;SDS011;76842;52.786;6.892;2024-03-22T04:43:30;61.90;;;38.08;;
52668;SDS011;76842;52.786;6.892;2024-03-22T04:46:51;59.50;;;37.60;;
52668;SDS011;76842;52.786;6.892;2024-03-22T04:50:11;61.10;;;39.95;;
52668;SDS011;76842;52.786;6.892;2024-03-22T04:53:34;61.33;;;38.53;;
52668;SDS011;76842;52.786;6.892;2024-03-22T04:56:55;61.40;;;38.70;;
52668;SDS011;76842;52.786;6.892;2024-03-22T05:00:16;63.65;;;39.47;;
52668;SDS011;76842;52.786;6.892;2024-03-22T05:03:37;57.00;;;38.70;;
52668;SDS011;76842;52.786;6.892;2024-03-22T05:06:57;59.03;;;40.95;;
52668;SDS011;76842;52.786;6.892;2024-03-22T05:10:18;60.92;;;39.72;;
52668;SDS011;76842;52.786;6.892;2024-03-22T05:13:39;64.70;;;39.83;;
52668;SDS011;76842;52.786;6.892;2024-03-22T05:17:02;61.70;;;39.10;;
52668;SDS011;76842;52.786;6.892;2024-03-22T05:20:22;64.50;;;42.63;;
52668;SDS011;76842;52.786;6.892;2024-03-22T05:23:43;66.55;;;40.25;;
52668;SDS011;76842;52.786;6.892;2024-03-22T05:27:04;66.53;;;41.20;;
52668;SDS011;76842;52.786;6.892;2024-03-22T05:30:25;62.38;;;39.38;;
52668;SDS011;76842;52.786;6.892;2024-03-22T05:33:46;60.38;;;40.50;;
52668;SDS011;76842;52.786;6.892;2024-03-22T05:37:06;67.78;;;41.05;;
52668;SDS011;76842;52.786;6.892;2024-03-22T05:40:29;67.15;;;41.90;;
52668;SDS011;76842;52.786;6.892;2024-03-22T05:43:50;58.10;;;37.42;;
52668;SDS011;76842;52.786;6.892;2024-03-22T05:47:10;62.80;;;40.35;;
52668;SDS011;76842;52.786;6.892;2024-03-22T05:50:31;67.28;;;42.70;;
52668;SDS011;76842;52.786;6.892;2024-03-22T05:53:52;57.97;;;38.15;;
52668;SDS011;76842;52.786;6.892;2024-03-22T05:57:13;65.72;;;38.50;;
52668;SDS011;76842;52.786;6.892;2024-03-22T06:00:33;66.50;;;42.20;;
52668;SDS011;76842;52.786;6.892;2024-03-22T06:03:54;63.95;;;41.67;;
52668;SDS011;76842;52.786;6.892;2024-03-22T06:07:15;70.38;;;43.30;;
52668;SDS011;76842;52.786;6.892;2024-03-22T06:10:37;69.60;;;43.78;;
52668;SDS011;76842;52.786;6.892;2024-03-22T06:13:57;68.10;;;42.00;;
52668;SDS011;76842;52.786;6.892;2024-03-22T06:17:18;68.75;;;42.83;;
52668;SDS011;76842;52.786;6.892;2024-03-22T06:20:39;72.82;;;43.15;;
52668;SDS011;76842;52.786;6.892;2024-03-22T06:24:00;65.72;;;39.67;;
52668;SDS011;76842;52.786;6.892;2024-03-22T06:27:20;75.30;;;43.22;;
52668;SDS011;76842;52.786;6.892;2024-03-22T06:30:41;69.60;;;44.50;;
52668;SDS011;76842;52.786;6.892;2024-03-22T06:34:02;67.63;;;40.80;;
52668;SDS011;76842;52.786;6.892;2024-03-22T06:37:22;66.75;;;43.67;;
52668;SDS011;76842;52.786;6.892;2024-03-22T06:40:43;65.78;;;41.88;;
52668;SDS011;76842;52.786;6.892;2024-03-22T06:44:05;70.68;;;43.50;;
52668;SDS011;76842;52.786;6.892;2024-03-22T06:47:25;63.83;;;39.60;;
52668;SDS011;76842;52.786;6.892;2024-03-22T06:50:46;61.55;;;40.58;;
52668;SDS011;76842;52.786;6.892;2024-03-22T06:54:06;66.47;;;40.55;;
52668;SDS011;76842;52.786;6.892;2024-03-22T06:57:27;69.93;;;40.75;;
52668;SDS011;76842;52.786;6.892;2024-03-22T07:00:48;57.65;;;39.53;;
52668;SDS011;76842;52.786;6.892;2024-03-22T07:04:08;60.30;;;40.92;;
52668;SDS011;76842;52.786;6.892;2024-03-22T07:07:29;60.72;;;39.28;;
52668;SDS011;76842;52.786;6.892;2024-03-22T07:10:50;61.10;;;40.45;;
52668;SDS011;76842;52.786;6.892;2024-03-22T07:14:13;61.88;;;41.10;;
52668;SDS011;76842;52.786;6.892;2024-03-22T07:17:34;60.38;;;35.67;;
52668;SDS011;76842;52.786;6.892;2024-03-22T07:20:54;60.33;;;37.45;;
52668;SDS011;76842;52.786;6.892;2024-03-22T07:24:15;56.83;;;36.10;;
52668;SDS011;76842;52.786;6.892;2024-03-22T07:27:37;51.65;;;34.75;;
52668;SDS011;76842;52.786;6.892;2024-03-22T07:30:58;58.55;;;35.05;;
52668;SDS011;76842;52.786;6.892;2024-03-22T07:34:19;50.75;;;34.65;;
52668;SDS011;76842;52.786;6.892;2024-03-22T07:37:40;50.95;;;32.15;;
52668;SDS011;76842;52.786;6.892;2024-03-22T07:41:01;50.03;;;32.15;;
52668;SDS011;76842;52.786;6.892;2024-03-22T07:44:21;54.63;;;34.28;;
52668;SDS011;76842;52.786;6.892;2024-03-22T07:47:44;50.03;;;31.65;;
52668;SDS011;76842;52.786;6.892;2024-03-22T07:51:05;46.42;;;28.95;;
52668;SDS011;76842;52.786;6.892;2024-03-22T07:54:25;45.08;;;27.90;;
52668;SDS011;76842;52.786;6.892;2024-03-22T07:57:46;41.58;;;26.65;;
52668;SDS011;76842;52.786;6.892;2024-03-22T08:01:07;41.92;;;28.33;;
52668;SDS011;76842;52.786;6.892;2024-03-22T08:04:28;42.20;;;26.73;;
52668;SDS011;76842;52.786;6.892;2024-03-22T08:07:48;40.65;;;26.75;;
52668;SDS011;76842;52.786;6.892;2024-03-22T08:11:09;46.60;;;25.30;;
52668;SDS011;76842;52.786;6.892;2024-03-22T08:14:30;42.17;;;26.33;;
52668;SDS011;76842;52.786;6.892;2024-03-22T08:17:51;38.75;;;25.33;;
52668;SDS011;76842;52.786;6.892;2024-03-22T08:21:12;40.50;;;24.08;;
52668;SDS011;76842;52.786;6.892;2024-03-22T08:24:32;38.83;;;23.88;;
52668;SDS011;76842;52.786;6.892;2024-03-22T08:27:53;36.30;;;23.20;;
52668;SDS011;76842;52.786;6.892;2024-03-22T08:31:15;36.25;;;22.60;;
52668;SDS011;76842;52.786;6.892;2024-03-22T08:34:37;38.95;;;23.35;;
52668;SDS011;76842;52.786;6.892;2024-03-22T08:37:57;37.90;;;24.20;;
52668;SDS011;76842;52.786;6.892;2024-03-22T08:41:18;34.85;;;21.55;;
52668;SDS011;76842;52.786;6.892;2024-03-22T08:44:39;35.08;;;21.33;;
52668;SDS011;76842;52.786;6.892;2024-03-22T08:48:00;39.15;;;20.92;;
52668;SDS011;76842;52.786;6.892;2024-03-22T08:51:21;31.15;;;19.98;;
52668;SDS011;76842;52.786;6.892;2024-03-22T08:54:41;33.85;;;20.90;;
52668;SDS011;76842;52.786;6.892;2024-03-22T08:58:03;34.35;;;19.88;;
52668;SDS011;76842;52.786;6.892;2024-03-22T09:01:24;25.20;;;17.38;;
52668;SDS011;76842;52.786;6.892;2024-03-22T09:04:45;29.88;;;18.58;;
52668;SDS011;76842;52.786;6.892;2024-03-22T09:08:06;33.67;;;17.95;;
52668;SDS011;76842;52.786;6.892;2024-03-22T09:11:27;39.58;;;19.88;;
52668;SDS011;76842;52.786;6.892;2024-03-22T09:14:48;28.98;;;18.27;;
52668;SDS011;76842;52.786;6.892;2024-03-22T09:18:09;28.08;;;19.08;;
52668;SDS011;76842;52.786;6.892;2024-03-22T09:21:29;34.42;;;18.02;;
52668;SDS011;76842;52.786;6.892;2024-03-22T09:24:52;35.30;;;18.50;;
52668;SDS011;76842;52.786;6.892;2024-03-22T09:28:12;32.03;;;19.77;;
52668;SDS011;76842;52.786;6.892;2024-03-22T09:31:33;31.95;;;19.00;;
52668;SDS011;76842;52.786;6.892;2024-03-22T09:34:54;33.00;;;19.30;;
52668;SDS011;76842;52.786;6.892;2024-03-22T09:38:15;29.38;;;17.65;;
52668;SDS011;76842;52.786;6.892;2024-03-22T09:41:37;24.60;;;17.48;;
52668;SDS011;76842;52.786;6.892;2024-03-22T09:45:02;31.13;;;19.45;;
52668;SDS011;76842;52.786;6.892;2024-03-22T09:48:23;29.88;;;18.65;;
52668;SDS011;76842;52.786;6.892;2024-03-22T09:51:45;28.20;;;17.25;;
52668;SDS011;76842;52.786;6.892;2024-03-22T09:55:07;33.50;;;20.77;;
52668;SDS011;76842;52.786;6.892;2024-03-22T09:58:28;27.08;;;17.52;;
52668;SDS011;76842;52.786;6.892;2024-03-22T10:01:49;26.33;;;16.23;;
52668;SDS011;76842;52.786;6.892;2024-03-22T10:05:12;19.40;;;15.65;;
52668;SDS011;76842;52.786;6.892;2024-03-22T10:08:33;20.00;;;15.15;;
52668;SDS011;76842;52.786;6.892;2024-03-22T10:11:53;21.30;;;15.30;;
52668;SDS011;76842;52.786;6.892;2024-03-22T10:15:14;22.40;;;14.88;;
52668;SDS011;76842;52.786;6.892;2024-03-22T10:18:35;21.95;;;15.57;;
52668;SDS011;76842;52.786;6.892;2024-03-22T10:22:03;21.38;;;13.95;;
52668;SDS011;76842;52.786;6.892;2024-03-22T10:25:25;22.27;;;14.38;;
52668;SDS011;76842;52.786;6.892;2024-03-22T10:32:08;24.20;;;15.38;;
52668;SDS011;76842;52.786;6.892;2024-03-22T10:35:30;17.55;;;15.23;;
52668;SDS011;76842;52.786;6.892;2024-03-22T10:38:50;18.95;;;16.13;;
52668;SDS011;76842;52.786;6.892;2024-03-22T10:42:14;23.13;;;16.48;;
52668;SDS011;76842;52.786;6.892;2024-03-22T10:45:36;20.75;;;15.60;;
52668;SDS011;76842;52.786;6.892;2024-03-22T10:48:58;21.90;;;15.63;;
52668;SDS011;76842;52.786;6.892;2024-03-22T10:52:19;29.05;;;15.65;;
52668;SDS011;76842;52.786;6.892;2024-03-22T10:55:44;23.75;;;15.45;;
52668;SDS011;76842;52.786;6.892;2024-03-22T10:59:08;23.23;;;14.73;;
52668;SDS011;76842;52.786;6.892;2024-03-22T11:02:28;21.45;;;14.30;;
52668;SDS011;76842;52.786;6.892;2024-03-22T11:05:58;18.25;;;13.23;;
52668;SDS011;76842;52.786;6.892;2024-03-22T11:09:21;18.67;;;13.38;;
52668;SDS011;76842;52.786;6.892;2024-03-22T11:12:43;17.02;;;13.45;;
52668;SDS011;76842;52.786;6.892;2024-03-22T11:16:05;19.38;;;14.75;;
52668;SDS011;76842;52.786;6.892;2024-03-22T11:19:28;26.20;;;15.20;;
52668;SDS011;76842;52.786;6.892;2024-03-22T11:22:48;18.35;;;13.82;;
52668;SDS011;76842;52.786;6.892;2024-03-22T11:26:11;19.57;;;14.43;;
52668;SDS011;76842;52.786;6.892;2024-03-22T11:29:32;19.10;;;13.07;;
52668;SDS011;76842;52.786;6.892;2024-03-22T11:32:54;16.92;;;12.57;;
52668;SDS011;76842;52.786;6.892;2024-03-22T11:36:14;14.80;;;10.55;;
52668;SDS011;76842;52.786;6.892;2024-03-22T11:39:35;17.88;;;12.50;;
52668;SDS011;76842;52.786;6.892;2024-03-22T11:42:57;13.77;;;10.95;;
52668;SDS011;76842;52.786;6.892;2024-03-22T11:46:19;11.93;;;9.57;;
52668;SDS011;76842;52.786;6.892;2024-03-22T11:53:02;11.05;;;7.72;;
52668;SDS011;76842;52.786;6.892;2024-03-22T11:56:25;15.23;;;9.98;;
52668;SDS011;76842;52.786;6.892;2024-03-22T11:59:46;13.73;;;8.77;;
52668;SDS011;76842;52.786;6.892;2024-03-22T12:03:07;13.68;;;9.65;;
52668;SDS011;76842;52.786;6.892;2024-03-22T12:06:29;12.40;;;10.10;;
52668;SDS011;76842;52.786;6.892;2024-03-22T12:09:50;11.45;;;9.20;;
52668;SDS011;76842;52.786;6.892;2024-03-22T12:13:12;11.63;;;9.47;;
52668;SDS011;76842;52.786;6.892;2024-03-22T12:16:33;15.48;;;9.35;;
52668;SDS011;76842;52.786;6.892;2024-03-22T12:19:53;13.07;;;8.73;;
52668;SDS011;76842;52.786;6.892;2024-03-22T12:23:15;11.35;;;7.38;;
52668;SDS011;76842;52.786;6.892;2024-03-22T12:26:35;12.35;;;7.90;;
52668;SDS011;76842;52.786;6.892;2024-03-22T12:29:56;10.70;;;6.80;;
52668;SDS011;76842;52.786;6.892;2024-03-22T12:33:17;10.60;;;7.88;;
52668;SDS011;76842;52.786;6.892;2024-03-22T12:36:37;8.45;;;7.05;;
52668;SDS011;76842;52.786;6.892;2024-03-22T12:39:59;7.55;;;5.50;;
52668;SDS011;76842;52.786;6.892;2024-03-22T12:43:19;6.50;;;5.03;;
52668;SDS011;76842;52.786;6.892;2024-03-22T12:46:40;6.45;;;4.50;;
52668;SDS011;76842;52.786;6.892;2024-03-22T12:50:05;6.63;;;4.78;;
52668;SDS011;76842;52.786;6.892;2024-03-22T12:53:25;6.70;;;4.80;;
52668;SDS011;76842;52.786;6.892;2024-03-22T12:56:46;5.25;;;3.90;;
52668;SDS011;76842;52.786;6.892;2024-03-22T13:00:08;5.03;;;3.85;;
52668;SDS011;76842;52.786;6.892;2024-03-22T13:03:32;5.32;;;3.95;;
52668;SDS011;76842;52.786;6.892;2024-03-22T13:07:00;7.65;;;4.35;;
52668;SDS011;76842;52.786;6.892;2024-03-22T13:10:21;5.70;;;4.45;;
52668;SDS011;76842;52.786;6.892;2024-03-22T13:13:41;8.77;;;5.18;;
52668;SDS011;76842;52.786;6.892;2024-03-22T13:17:03;7.60;;;4.40;;
52668;SDS011;76842;52.786;6.892;2024-03-22T13:20:24;5.97;;;4.25;;
52668;SDS011;76842;52.786;6.892;2024-03-22T13:23:45;7.35;;;3.20;;
52668;SDS011;76842;52.786;6.892;2024-03-22T13:27:05;8.57;;;3.33;;
52668;SDS011;76842;52.786;6.892;2024-03-22T13:30:26;7.05;;;3.13;;
52668;SDS011;76842;52.786;6.892;2024-03-22T13:33:47;4.75;;;3.38;;
52668;SDS011;76842;52.786;6.892;2024-03-22T13:37:08;9.32;;;3.88;;
52668;SDS011;76842;52.786;6.892;2024-03-22T13:40:29;7.28;;;3.72;;
52668;SDS011;76842;52.786;6.892;2024-03-22T13:43:50;8.43;;;3.47;;
52668;SDS011;76842;52.786;6.892;2024-03-22T13:47:10;7.43;;;3.97;;
52668;SDS011;76842;52.786;6.892;2024-03-22T13:50:32;9.23;;;4.65;;
52668;SDS011;76842;52.786;6.892;2024-03-22T13:53:53;9.13;;;4.00;;
52668;SDS011;76842;52.786;6.892;2024-03-22T13:57:14;11.02;;;3.13;;
52668;SDS011;76842;52.786;6.892;2024-03-22T14:00:34;7.28;;;3.65;;
52668;SDS011;76842;52.786;6.892;2024-03-22T14:03:55;10.57;;;3.92;;
52668;SDS011;76842;52.786;6.892;2024-03-22T14:07:16;7.03;;;5.15;;
52668;SDS011;76842;52.786;6.892;2024-03-22T14:10:37;11.95;;;4.75;;
52668;SDS011;76842;52.786;6.892;2024-03-22T14:13:57;10.85;;;4.55;;
52668;SDS011;76842;52.786;6.892;2024-03-22T14:17:18;9.63;;;4.55;;
52668;SDS011;76842;52.786;6.892;2024-03-22T14:20:39;11.80;;;4.28;;
52668;SDS011;76842;52.786;6.892;2024-03-22T14:23:59;10.02;;;5.22;;
52668;SDS011;76842;52.786;6.892;2024-03-22T14:27:20;9.50;;;5.53;;
52668;SDS011;76842;52.786;6.892;2024-03-22T14:30:41;8.55;;;5.60;;
52668;SDS011;76842;52.786;6.892;2024-03-22T14:34:02;12.50;;;5.78;;
52668;SDS011;76842;52.786;6.892;2024-03-22T14:37:23;13.25;;;6.97;;
52668;SDS011;76842;52.786;6.892;2024-03-22T14:40:44;12.15;;;6.45;;
52668;SDS011;76842;52.786;6.892;2024-03-22T14:44:04;17.70;;;6.57;;
52668;SDS011;76842;52.786;6.892;2024-03-22T14:47:25;12.05;;;6.45;;
52668;SDS011;76842;52.786;6.892;2024-03-22T14:50:46;11.35;;;6.10;;
52668;SDS011;76842;52.786;6.892;2024-03-22T14:54:08;14.35;;;6.50;;
52668;SDS011;76842;52.786;6.892;2024-03-22T14:57:28;19.05;;;8.80;;
52668;SDS011;76842;52.786;6.892;2024-03-22T15:00:52;13.52;;;7.10;;
52668;SDS011;76842;52.786;6.892;2024-03-22T15:04:13;11.25;;;6.40;;
52668;SDS011;76842;52.786;6.892;2024-03-22T15:07:34;16.42;;;7.28;;
52668;SDS011;76842;52.786;6.892;2024-03-22T15:10:55;12.30;;;6.90;;
52668;SDS011;76842;52.786;6.892;2024-03-22T15:14:16;20.60;;;8.15;;
52668;SDS011;76842;52.786;6.892;2024-03-22T15:17:37;15.18;;;7.20;;
52668;SDS011;76842;52.786;6.892;2024-03-22T15:20:57;16.20;;;7.20;;
52668;SDS011;76842;52.786;6.892;2024-03-22T15:24:18;15.40;;;8.40;;
52668;SDS011;76842;52.786;6.892;2024-03-22T15:27:39;22.15;;;9.23;;
52668;SDS011;76842;52.786;6.892;2024-03-22T15:31:00;17.40;;;8.45;;
52668;SDS011;76842;52.786;6.892;2024-03-22T15:34:21;14.00;;;7.75;;
52668;SDS011;76842;52.786;6.892;2024-03-22T15:37:44;18.20;;;8.55;;
52668;SDS011;76842;52.786;6.892;2024-03-22T15:44:26;15.80;;;7.05;;
52668;SDS011;76842;52.786;6.892;2024-03-22T15:47:47;15.50;;;7.10;;
52668;SDS011;76842;52.786;6.892;2024-03-22T15:51:07;25.98;;;8.45;;
52668;SDS011;76842;52.786;6.892;2024-03-22T15:54:28;12.07;;;6.10;;
52668;SDS011;76842;52.786;6.892;2024-03-22T15:57:51;13.75;;;6.20;;
52668;SDS011;76842;52.786;6.892;2024-03-22T16:01:15;25.65;;;7.68;;
52668;SDS011;76842;52.786;6.892;2024-03-22T16:04:35;18.40;;;7.28;;
52668;SDS011;76842;52.786;6.892;2024-03-22T16:07:58;26.27;;;6.30;;
52668;SDS011;76842;52.786;6.892;2024-03-22T16:11:18;14.10;;;6.30;;
52668;SDS011;76842;52.786;6.892;2024-03-22T16:14:39;10.98;;;5.55;;
52668;SDS011;76842;52.786;6.892;2024-03-22T16:18:00;10.50;;;4.43;;
52668;SDS011;76842;52.786;6.892;2024-03-22T16:21:20;13.90;;;5.00;;
52668;SDS011;76842;52.786;6.892;2024-03-22T16:24:42;20.70;;;5.82;;
52668;SDS011;76842;52.786;6.892;2024-03-22T16:28:03;7.53;;;4.15;;
52668;SDS011;76842;52.786;6.892;2024-03-22T16:31:24;15.10;;;4.82;;
52668;SDS011;76842;52.786;6.892;2024-03-22T16:34:45;18.30;;;4.88;;
52668;SDS011;76842;52.786;6.892;2024-03-22T16:38:06;21.00;;;7.13;;
52668;SDS011;76842;52.786;6.892;2024-03-22T16:41:26;14.90;;;5.47;;
52668;SDS011;76842;52.786;6.892;2024-03-22T16:44:47;17.63;;;5.22;;
52668;SDS011;76842;52.786;6.892;2024-03-22T16:48:08;15.93;;;5.30;;
52668;SDS011;76842;52.786;6.892;2024-03-22T16:51:29;12.02;;;5.78;;
52668;SDS011;76842;52.786;6.892;2024-03-22T16:54:49;22.15;;;6.13;;
52668;SDS011;76842;52.786;6.892;2024-03-22T16:58:10;18.73;;;4.85;;
52668;SDS011;76842;52.786;6.892;2024-03-22T17:01:31;13.80;;;5.20;;
52668;SDS011;76842;52.786;6.892;2024-03-22T17:04:51;18.52;;;5.63;;
52668;SDS011;76842;52.786;6.892;2024-03-22T17:08:12;9.57;;;5.05;;
52668;SDS011;76842;52.786;6.892;2024-03-22T17:11:32;14.98;;;5.18;;
52668;SDS011;76842;52.786;6.892;2024-03-22T17:14:54;16.23;;;5.80;;
52668;SDS011;76842;52.786;6.892;2024-03-22T17:18:15;16.83;;;8.55;;
52668;SDS011;76842;52.786;6.892;2024-03-22T17:21:35;15.73;;;5.85;;
52668;SDS011;76842;52.786;6.892;2024-03-22T17:24:56;12.68;;;5.80;;
52668;SDS011;76842;52.786;6.892;2024-03-22T17:28:16;16.58;;;5.90;;
52668;SDS011;76842;52.786;6.892;2024-03-22T17:31:37;14.52;;;6.15;;
52668;SDS011;76842;52.786;6.892;2024-03-22T17:34:59;14.55;;;5.50;;
52668;SDS011;76842;52.786;6.892;2024-03-22T17:38:20;18.92;;;5.97;;
52668;SDS011;76842;52.786;6.892;2024-03-22T17:41:41;15.60;;;4.97;;
52668;SDS011;76842;52.786;6.892;2024-03-22T17:45:01;17.08;;;6.05;;
52668;SDS011;76842;52.786;6.892;2024-03-22T17:48:24;19.88;;;7.45;;
52668;SDS011;76842;52.786;6.892;2024-03-22T17:51:45;18.55;;;4.88;;
52668;SDS011;76842;52.786;6.892;2024-03-22T17:55:06;17.10;;;7.50;;
52668;SDS011;76842;52.786;6.892;2024-03-22T17:58:27;23.00;;;6.20;;
52668;SDS011;76842;52.786;6.892;2024-03-22T18:01:47;17.33;;;5.70;;
52668;SDS011;76842;52.786;6.892;2024-03-22T18:05:08;21.80;;;6.45;;
52668;SDS011;76842;52.786;6.892;2024-03-22T18:08:32;15.43;;;5.80;;
52668;SDS011;76842;52.786;6.892;2024-03-22T18:11:53;26.98;;;7.57;;
52668;SDS011;76842;52.786;6.892;2024-03-22T18:15:14;14.00;;;6.32;;
52668;SDS011;76842;52.786;6.892;2024-03-22T18:18:35;20.77;;;8.10;;
52668;SDS011;76842;52.786;6.892;2024-03-22T18:21:55;21.13;;;7.63;;
52668;SDS011;76842;52.786;6.892;2024-03-22T18:25:16;22.83;;;5.95;;
52668;SDS011;76842;52.786;6.892;2024-03-22T18:28:37;25.20;;;6.68;;
52668;SDS011;76842;52.786;6.892;2024-03-22T18:31:58;22.35;;;7.95;;
52668;SDS011;76842;52.786;6.892;2024-03-22T18:35:18;24.13;;;7.10;;
52668;SDS011;76842;52.786;6.892;2024-03-22T18:38:39;19.33;;;6.40;;
52668;SDS011;76842;52.786;6.892;2024-03-22T18:42:00;19.55;;;7.82;;
52668;SDS011;76842;52.786;6.892;2024-03-22T18:45:21;24.30;;;8.02;;
52668;SDS011;76842;52.786;6.892;2024-03-22T18:48:41;19.17;;;5.68;;
52668;SDS011;76842;52.786;6.892;2024-03-22T18:52:02;19.95;;;6.60;;
52668;SDS011;76842;52.786;6.892;2024-03-22T18:55:23;19.20;;;7.22;;
52668;SDS011;76842;52.786;6.892;2024-03-22T18:58:43;21.13;;;8.43;;
52668;SDS011;76842;52.786;6.892;2024-03-22T19:02:04;22.40;;;7.15;;
52668;SDS011;76842;52.786;6.892;2024-03-22T19:05:25;19.60;;;6.53;;
52668;SDS011;76842;52.786;6.892;2024-03-22T19:08:46;17.73;;;6.75;;
52668;SDS011;76842;52.786;6.892;2024-03-22T19:12:07;28.30;;;7.82;;
52668;SDS011;76842;52.786;6.892;2024-03-22T19:15:28;21.75;;;5.72;;
52668;SDS011;76842;52.786;6.892;2024-03-22T19:18:50;17.95;;;6.00;;
52668;SDS011;76842;52.786;6.892;2024-03-22T19:22:10;28.88;;;6.40;;
52668;SDS011;76842;52.786;6.892;2024-03-22T19:25:31;24.83;;;6.82;;
52668;SDS011;76842;52.786;6.892;2024-03-22T19:28:52;16.73;;;5.18;;
52668;SDS011;76842;52.786;6.892;2024-03-22T19:32:12;17.40;;;5.97;;
52668;SDS011;76842;52.786;6.892;2024-03-22T19:35:33;17.48;;;6.18;;
52668;SDS011;76842;52.786;6.892;2024-03-22T19:38:54;25.50;;;7.03;;
52668;SDS011;76842;52.786;6.892;2024-03-22T19:42:15;19.23;;;5.70;;
52668;SDS011;76842;52.786;6.892;2024-03-22T19:45:35;21.55;;;6.15;;
52668;SDS011;76842;52.786;6.892;2024-03-22T19:48:56;14.73;;;5.93;;
52668;SDS011;76842;52.786;6.892;2024-03-22T19:52:17;20.67;;;6.43;;
52668;SDS011;76842;52.786;6.892;2024-03-22T19:55:37;19.40;;;8.05;;